sensor_id;sensor_type;location;lat;lon;timestamp;P1;durP1;ratioP1;P2;durP2;ratioP2
11473;SDS011;5793;52.238;13.438;2023-02-01T00:00:05;13.70;;;3.67;;
11473;SDS011;5793;52.238;13.438;2023-02-01T00:02:33;17.53;;;4.10;;
11473;SDS011;5793;52.238;13.438;2023-02-01T00:05:02;16.30;;;4.30;;
11473;SDS011;5793;52.238;13.438;2023-02-01T00:07:31;15.83;;;3.67;;
11473;SDS011;5793;52.238;13.438;2023-02-01T00:09:59;17.87;;;4.30;;
11473;SDS011;5793;52.238;13.438;2023-02-01T00:12:27;15.43;;;3.70;;
11473;SDS011;5793;52.238;13.438;2023-02-01T00:14:55;19.43;;;3.67;;
11473;SDS011;5793;52.238;13.438;2023-02-01T00:17:22;16.40;;;3.87;;
11473;SDS011;5793;52.238;13.438;2023-02-01T00:19:50;21.70;;;4.27;;
11473;SDS011;5793;52.238;13.438;2023-02-01T00:22:18;16.00;;;3.77;;
11473;SDS011;5793;52.238;13.438;2023-02-01T00:24:47;20.53;;;4.10;;
11473;SDS011;5793;52.238;13.438;2023-02-01T00:27:15;19.07;;;4.10;;
11473;SDS011;5793;52.238;13.438;2023-02-01T00:29:46;16.83;;;3.43;;
11473;SDS011;5793;52.238;13.438;2023-02-01T00:32:14;17.10;;;4.10;;
11473;SDS011;5793;52.238;13.438;2023-02-01T00:34:42;13.17;;;3.50;;
11473;SDS011;5793;52.238;13.438;2023-02-01T00:37:09;21.10;;;4.07;;
11473;SDS011;5793;52.238;13.438;2023-02-01T00:39:37;19.67;;;3.70;;
11473;SDS011;5793;52.238;13.438;2023-02-01T00:42:06;19.00;;;3.93;;
11473;SDS011;5793;52.238;13.438;2023-02-01T00:44:34;14.57;;;3.67;;
11473;SDS011;5793;52.238;13.438;2023-02-01T00:47:02;10.77;;;3.70;;
11473;SDS011;5793;52.238;13.438;2023-02-01T00:49:30;18.17;;;4.00;;
11473;SDS011;5793;52.238;13.438;2023-02-01T00:51:57;17.47;;;4.00;;
11473;SDS011;5793;52.238;13.438;2023-02-01T00:54:25;18.23;;;3.80;;
11473;SDS011;5793;52.238;13.438;2023-02-01T00:56:53;14.63;;;3.47;;
11473;SDS011;5793;52.238;13.438;2023-02-01T00:59:22;21.03;;;4.20;;
11473;SDS011;5793;52.238;13.438;2023-02-01T01:01:50;16.33;;;3.50;;
11473;SDS011;5793;52.238;13.438;2023-02-01T01:04:17;13.90;;;3.40;;
11473;SDS011;5793;52.238;13.438;2023-02-01T01:06:45;18.03;;;4.30;;
11473;SDS011;5793;52.238;13.438;2023-02-01T01:09:13;14.57;;;3.33;;
11473;SDS011;5793;52.238;13.438;2023-02-01T01:11:40;16.70;;;3.43;;
11473;SDS011;5793;52.238;13.438;2023-02-01T01:14:08;13.70;;;3.73;;
11473;SDS011;5793;52.238;13.438;2023-02-01T01:16:38;17.27;;;3.73;;
11473;SDS011;5793;52.238;13.438;2023-02-01T01:19:06;15.67;;;4.03;;
11473;SDS011;5793;52.238;13.438;2023-02-01T01:21:33;16.17;;;3.43;;
11473;SDS011;5793;52.238;13.438;2023-02-01T01:24:01;15.60;;;3.93;;
11473;SDS011;5793;52.238;13.438;2023-02-01T01:26:29;18.90;;;3.90;;
11473;SDS011;5793;52.238;13.438;2023-02-01T01:28:58;23.13;;;4.00;;
11473;SDS011;5793;52.238;13.438;2023-02-01T01:31:26;16.10;;;3.50;;
11473;SDS011;5793;52.238;13.438;2023-02-01T01:33:57;16.33;;;3.90;;
11473;SDS011;5793;52.238;13.438;2023-02-01T01:36:26;13.37;;;3.70;;
11473;SDS011;5793;52.238;13.438;2023-02-01T01:38:55;13.50;;;3.93;;
11473;SDS011;5793;52.238;13.438;2023-02-01T01:41:23;11.67;;;3.47;;
11473;SDS011;5793;52.238;13.438;2023-02-01T01:43:54;10.30;;;2.97;;
11473;SDS011;5793;52.238;13.438;2023-02-01T01:46:24;17.50;;;3.47;;
11473;SDS011;5793;52.238;13.438;2023-02-01T01:48:55;16.93;;;4.57;;
11473;SDS011;5793;52.238;13.438;2023-02-01T01:51:28;19.57;;;3.93;;
11473;SDS011;5793;52.238;13.438;2023-02-01T01:54:00;11.60;;;3.60;;
11473;SDS011;5793;52.238;13.438;2023-02-01T01:56:31;13.53;;;3.57;;
11473;SDS011;5793;52.238;13.438;2023-02-01T01:59:01;16.37;;;3.63;;
11473;SDS011;5793;52.238;13.438;2023-02-01T02:01:30;12.37;;;3.47;;
11473;SDS011;5793;52.238;13.438;2023-02-01T02:04:04;16.57;;;3.70;;
11473;SDS011;5793;52.238;13.438;2023-02-01T02:06:37;18.83;;;4.30;;
11473;SDS011;5793;52.238;13.438;2023-02-01T02:09:12;15.93;;;3.60;;
11473;SDS011;5793;52.238;13.438;2023-02-01T02:11:40;15.80;;;4.13;;
11473;SDS011;5793;52.238;13.438;2023-02-01T02:14:08;17.50;;;4.17;;
11473;SDS011;5793;52.238;13.438;2023-02-01T02:16:40;15.33;;;4.00;;
11473;SDS011;5793;52.238;13.438;2023-02-01T02:19:32;17.17;;;3.53;;
11473;SDS011;5793;52.238;13.438;2023-02-01T02:22:41;17.60;;;3.67;;
11473;SDS011;5793;52.238;13.438;2023-02-01T02:25:24;18.03;;;4.47;;
11473;SDS011;5793;52.238;13.438;2023-02-01T02:28:10;21.23;;;3.27;;
11473;SDS011;5793;52.238;13.438;2023-02-01T02:30:55;14.60;;;4.10;;
11473;SDS011;5793;52.238;13.438;2023-02-01T02:33:43;18.43;;;4.03;;
11473;SDS011;5793;52.238;13.438;2023-02-01T02:36:19;16.20;;;4.00;;
11473;SDS011;5793;52.238;13.438;2023-02-01T02:39:01;12.50;;;3.20;;
11473;SDS011;5793;52.238;13.438;2023-02-01T02:41:36;20.83;;;3.77;;
11473;SDS011;5793;52.238;13.438;2023-02-01T02:44:31;15.33;;;3.63;;
11473;SDS011;5793;52.238;13.438;2023-02-01T02:47:21;19.17;;;4.40;;
11473;SDS011;5793;52.238;13.438;2023-02-01T02:49:56;14.50;;;3.90;;
11473;SDS011;5793;52.238;13.438;2023-02-01T02:52:48;14.63;;;3.47;;
11473;SDS011;5793;52.238;13.438;2023-02-01T02:55:41;17.70;;;3.83;;
11473;SDS011;5793;52.238;13.438;2023-02-01T02:58:10;13.73;;;3.37;;
11473;SDS011;5793;52.238;13.438;2023-02-01T03:00:57;17.57;;;3.97;;
11473;SDS011;5793;52.238;13.438;2023-02-01T03:03:42;19.27;;;4.20;;
11473;SDS011;5793;52.238;13.438;2023-02-01T03:06:36;17.03;;;3.80;;
11473;SDS011;5793;52.238;13.438;2023-02-01T03:09:07;20.83;;;3.70;;
11473;SDS011;5793;52.238;13.438;2023-02-01T03:11:39;23.77;;;4.17;;
11473;SDS011;5793;52.238;13.438;2023-02-01T03:14:28;16.27;;;3.90;;
11473;SDS011;5793;52.238;13.438;2023-02-01T03:16:58;15.90;;;3.87;;
11473;SDS011;5793;52.238;13.438;2023-02-01T03:19:32;14.57;;;4.03;;
11473;SDS011;5793;52.238;13.438;2023-02-01T03:22:04;21.80;;;4.07;;
11473;SDS011;5793;52.238;13.438;2023-02-01T03:24:36;20.43;;;4.03;;
11473;SDS011;5793;52.238;13.438;2023-02-01T03:27:08;20.80;;;4.23;;
11473;SDS011;5793;52.238;13.438;2023-02-01T03:29:41;20.50;;;3.83;;
11473;SDS011;5793;52.238;13.438;2023-02-01T03:32:13;17.40;;;3.70;;
11473;SDS011;5793;52.238;13.438;2023-02-01T03:34:41;24.47;;;4.23;;
11473;SDS011;5793;52.238;13.438;2023-02-01T03:37:12;17.87;;;3.93;;
11473;SDS011;5793;52.238;13.438;2023-02-01T03:39:45;13.77;;;3.53;;
11473;SDS011;5793;52.238;13.438;2023-02-01T03:42:17;17.10;;;4.17;;
11473;SDS011;5793;52.238;13.438;2023-02-01T03:44:49;14.77;;;4.07;;
11473;SDS011;5793;52.238;13.438;2023-02-01T03:47:21;22.40;;;4.23;;
11473;SDS011;5793;52.238;13.438;2023-02-01T03:49:52;16.80;;;3.83;;
11473;SDS011;5793;52.238;13.438;2023-02-01T03:52:24;16.20;;;3.93;;
11473;SDS011;5793;52.238;13.438;2023-02-01T03:54:55;16.17;;;3.40;;
11473;SDS011;5793;52.238;13.438;2023-02-01T03:57:25;15.73;;;3.47;;
11473;SDS011;5793;52.238;13.438;2023-02-01T04:00:03;18.13;;;4.20;;
11473;SDS011;5793;52.238;13.438;2023-02-01T04:02:33;17.93;;;3.83;;
11473;SDS011;5793;52.238;13.438;2023-02-01T04:05:01;21.70;;;4.50;;
11473;SDS011;5793;52.238;13.438;2023-02-01T04:07:31;18.47;;;4.17;;
11473;SDS011;5793;52.238;13.438;2023-02-01T04:09:59;21.73;;;4.57;;
11473;SDS011;5793;52.238;13.438;2023-02-01T04:12:26;20.13;;;4.03;;
11473;SDS011;5793;52.238;13.438;2023-02-01T04:14:54;21.77;;;4.47;;
11473;SDS011;5793;52.238;13.438;2023-02-01T04:17:22;15.53;;;3.93;;
11473;SDS011;5793;52.238;13.438;2023-02-01T04:19:50;22.67;;;4.60;;
11473;SDS011;5793;52.238;13.438;2023-02-01T04:22:20;20.17;;;3.37;;
11473;SDS011;5793;52.238;13.438;2023-02-01T04:24:49;17.73;;;4.07;;
11473;SDS011;5793;52.238;13.438;2023-02-01T04:27:17;16.63;;;3.93;;
11473;SDS011;5793;52.238;13.438;2023-02-01T04:29:45;21.37;;;4.10;;
11473;SDS011;5793;52.238;13.438;2023-02-01T04:32:12;15.43;;;4.50;;
11473;SDS011;5793;52.238;13.438;2023-02-01T04:34:42;20.00;;;4.70;;
11473;SDS011;5793;52.238;13.438;2023-02-01T04:37:09;14.87;;;3.53;;
11473;SDS011;5793;52.238;13.438;2023-02-01T04:39:37;18.23;;;3.93;;
11473;SDS011;5793;52.238;13.438;2023-02-01T04:42:06;14.57;;;3.67;;
11473;SDS011;5793;52.238;13.438;2023-02-01T04:44:34;19.77;;;4.40;;
11473;SDS011;5793;52.238;13.438;2023-02-01T04:47:05;13.90;;;4.13;;
11473;SDS011;5793;52.238;13.438;2023-02-01T04:49:33;20.57;;;5.13;;
11473;SDS011;5793;52.238;13.438;2023-02-01T04:52:01;15.17;;;4.10;;
11473;SDS011;5793;52.238;13.438;2023-02-01T04:54:29;15.63;;;3.87;;
11473;SDS011;5793;52.238;13.438;2023-02-01T04:56:56;16.17;;;4.00;;
11473;SDS011;5793;52.238;13.438;2023-02-01T04:59:26;19.00;;;3.77;;
11473;SDS011;5793;52.238;13.438;2023-02-01T05:01:55;16.80;;;4.63;;
11473;SDS011;5793;52.238;13.438;2023-02-01T05:04:22;20.30;;;4.17;;
11473;SDS011;5793;52.238;13.438;2023-02-01T05:06:50;18.40;;;4.37;;
11473;SDS011;5793;52.238;13.438;2023-02-01T05:09:18;14.47;;;3.57;;
11473;SDS011;5793;52.238;13.438;2023-02-01T05:11:47;20.53;;;4.33;;
11473;SDS011;5793;52.238;13.438;2023-02-01T05:14:34;13.63;;;3.87;;
11473;SDS011;5793;52.238;13.438;2023-02-01T05:17:02;17.77;;;4.30;;
11473;SDS011;5793;52.238;13.438;2023-02-01T05:19:30;18.17;;;4.37;;
11473;SDS011;5793;52.238;13.438;2023-02-01T05:21:58;19.47;;;4.43;;
11473;SDS011;5793;52.238;13.438;2023-02-01T05:24:25;19.43;;;4.87;;
11473;SDS011;5793;52.238;13.438;2023-02-01T05:26:53;15.50;;;4.03;;
11473;SDS011;5793;52.238;13.438;2023-02-01T05:29:21;19.13;;;4.73;;
11473;SDS011;5793;52.238;13.438;2023-02-01T05:31:50;26.70;;;4.30;;
11473;SDS011;5793;52.238;13.438;2023-02-01T05:34:18;14.40;;;3.97;;
11473;SDS011;5793;52.238;13.438;2023-02-01T05:36:46;21.40;;;4.50;;
11473;SDS011;5793;52.238;13.438;2023-02-01T05:39:13;19.97;;;4.40;;
11473;SDS011;5793;52.238;13.438;2023-02-01T05:41:41;21.77;;;4.70;;
11473;SDS011;5793;52.238;13.438;2023-02-01T05:44:09;26.13;;;4.60;;
11473;SDS011;5793;52.238;13.438;2023-02-01T05:46:37;15.47;;;4.03;;
11473;SDS011;5793;52.238;13.438;2023-02-01T05:49:07;21.73;;;4.83;;
11473;SDS011;5793;52.238;13.438;2023-02-01T05:51:34;21.07;;;3.80;;
11473;SDS011;5793;52.238;13.438;2023-02-01T05:54:02;24.23;;;4.30;;
11473;SDS011;5793;52.238;13.438;2023-02-01T05:56:30;23.47;;;4.90;;
11473;SDS011;5793;52.238;13.438;2023-02-01T05:58:58;18.67;;;4.10;;
11473;SDS011;5793;52.238;13.438;2023-02-01T06:01:25;21.73;;;4.30;;
11473;SDS011;5793;52.238;13.438;2023-02-01T06:03:53;16.90;;;4.33;;
11473;SDS011;5793;52.238;13.438;2023-02-01T06:06:22;17.27;;;4.27;;
11473;SDS011;5793;52.238;13.438;2023-02-01T06:08:50;19.37;;;4.37;;
11473;SDS011;5793;52.238;13.438;2023-02-01T06:11:18;21.27;;;4.73;;
11473;SDS011;5793;52.238;13.438;2023-02-01T06:13:57;18.80;;;4.50;;
11473;SDS011;5793;52.238;13.438;2023-02-01T06:16:26;21.03;;;4.67;;
11473;SDS011;5793;52.238;13.438;2023-02-01T06:18:54;15.80;;;4.03;;
11473;SDS011;5793;52.238;13.438;2023-02-01T06:21:23;11.97;;;3.23;;
11473;SDS011;5793;52.238;13.438;2023-02-01T06:23:51;16.20;;;4.63;;
11473;SDS011;5793;52.238;13.438;2023-02-01T06:26:19;20.27;;;4.80;;
11473;SDS011;5793;52.238;13.438;2023-02-01T06:28:47;17.63;;;4.53;;
11473;SDS011;5793;52.238;13.438;2023-02-01T06:31:15;19.70;;;4.83;;
11473;SDS011;5793;52.238;13.438;2023-02-01T06:33:43;20.27;;;5.17;;
11473;SDS011;5793;52.238;13.438;2023-02-01T06:36:11;21.87;;;4.30;;
11473;SDS011;5793;52.238;13.438;2023-02-01T06:38:42;15.87;;;4.40;;
11473;SDS011;5793;52.238;13.438;2023-02-01T06:41:10;15.17;;;4.17;;
11473;SDS011;5793;52.238;13.438;2023-02-01T06:43:38;16.67;;;4.17;;
11473;SDS011;5793;52.238;13.438;2023-02-01T06:46:07;15.00;;;4.00;;
11473;SDS011;5793;52.238;13.438;2023-02-01T06:48:39;16.57;;;4.43;;
11473;SDS011;5793;52.238;13.438;2023-02-01T06:51:16;20.10;;;4.67;;
11473;SDS011;5793;52.238;13.438;2023-02-01T06:53:48;14.23;;;4.10;;
11473;SDS011;5793;52.238;13.438;2023-02-01T06:56:16;19.73;;;5.23;;
11473;SDS011;5793;52.238;13.438;2023-02-01T06:58:47;16.10;;;4.83;;
11473;SDS011;5793;52.238;13.438;2023-02-01T07:01:15;16.40;;;4.03;;
11473;SDS011;5793;52.238;13.438;2023-02-01T07:03:46;14.50;;;3.83;;
11473;SDS011;5793;52.238;13.438;2023-02-01T07:06:14;17.77;;;4.37;;
11473;SDS011;5793;52.238;13.438;2023-02-01T07:08:42;14.87;;;3.80;;
11473;SDS011;5793;52.238;13.438;2023-02-01T07:11:12;17.77;;;4.37;;
11473;SDS011;5793;52.238;13.438;2023-02-01T07:13:41;15.57;;;4.50;;
11473;SDS011;5793;52.238;13.438;2023-02-01T07:16:10;13.30;;;3.90;;
11473;SDS011;5793;52.238;13.438;2023-02-01T07:18:39;13.43;;;4.60;;
11473;SDS011;5793;52.238;13.438;2023-02-01T07:21:07;15.47;;;4.50;;
11473;SDS011;5793;52.238;13.438;2023-02-01T07:23:35;17.40;;;4.27;;
11473;SDS011;5793;52.238;13.438;2023-02-01T07:26:04;12.37;;;3.90;;
11473;SDS011;5793;52.238;13.438;2023-02-01T07:28:35;18.80;;;4.43;;
11473;SDS011;5793;52.238;13.438;2023-02-01T07:31:04;15.07;;;3.93;;
11473;SDS011;5793;52.238;13.438;2023-02-01T07:33:32;14.97;;;4.10;;
11473;SDS011;5793;52.238;13.438;2023-02-01T07:36:00;21.47;;;4.43;;
11473;SDS011;5793;52.238;13.438;2023-02-01T07:38:30;12.20;;;4.47;;
11473;SDS011;5793;52.238;13.438;2023-02-01T07:40:57;22.77;;;4.43;;
11473;SDS011;5793;52.238;13.438;2023-02-01T07:43:26;14.70;;;4.10;;
11473;SDS011;5793;52.238;13.438;2023-02-01T07:45:56;17.63;;;4.60;;
11473;SDS011;5793;52.238;13.438;2023-02-01T07:48:24;17.73;;;4.43;;
11473;SDS011;5793;52.238;13.438;2023-02-01T07:50:56;15.53;;;4.43;;
11473;SDS011;5793;52.238;13.438;2023-02-01T07:53:25;13.27;;;3.70;;
11473;SDS011;5793;52.238;13.438;2023-02-01T07:55:53;15.53;;;4.37;;
11473;SDS011;5793;52.238;13.438;2023-02-01T07:58:22;13.17;;;4.03;;
11473;SDS011;5793;52.238;13.438;2023-02-01T08:00:50;20.10;;;4.83;;
11473;SDS011;5793;52.238;13.438;2023-02-01T08:03:37;20.70;;;4.67;;
11473;SDS011;5793;52.238;13.438;2023-02-01T08:06:04;16.40;;;4.43;;
11473;SDS011;5793;52.238;13.438;2023-02-01T08:08:32;19.53;;;4.60;;
11473;SDS011;5793;52.238;13.438;2023-02-01T08:11:01;22.10;;;4.97;;
11473;SDS011;5793;52.238;13.438;2023-02-01T08:13:31;13.43;;;4.40;;
11473;SDS011;5793;52.238;13.438;2023-02-01T08:16:00;19.40;;;4.50;;
11473;SDS011;5793;52.238;13.438;2023-02-01T08:18:28;14.87;;;5.17;;
11473;SDS011;5793;52.238;13.438;2023-02-01T08:21:01;16.70;;;5.73;;
11473;SDS011;5793;52.238;13.438;2023-02-01T08:23:30;14.20;;;5.03;;
11473;SDS011;5793;52.238;13.438;2023-02-01T08:26:04;13.57;;;4.50;;
11473;SDS011;5793;52.238;13.438;2023-02-01T08:28:32;15.33;;;4.73;;
11473;SDS011;5793;52.238;13.438;2023-02-01T08:31:06;16.67;;;5.30;;
11473;SDS011;5793;52.238;13.438;2023-02-01T08:33:35;15.67;;;5.07;;
11473;SDS011;5793;52.238;13.438;2023-02-01T08:36:06;19.53;;;5.17;;
11473;SDS011;5793;52.238;13.438;2023-02-01T08:38:35;15.20;;;5.10;;
11473;SDS011;5793;52.238;13.438;2023-02-01T08:41:03;16.67;;;4.53;;
11473;SDS011;5793;52.238;13.438;2023-02-01T08:43:33;14.77;;;4.73;;
11473;SDS011;5793;52.238;13.438;2023-02-01T08:46:00;13.67;;;4.77;;
11473;SDS011;5793;52.238;13.438;2023-02-01T08:48:28;13.53;;;4.67;;
11473;SDS011;5793;52.238;13.438;2023-02-01T08:50:56;16.80;;;4.63;;
11473;SDS011;5793;52.238;13.438;2023-02-01T08:53:25;15.13;;;5.83;;
11473;SDS011;5793;52.238;13.438;2023-02-01T08:55:53;17.23;;;5.00;;
11473;SDS011;5793;52.238;13.438;2023-02-01T08:58:21;11.43;;;4.63;;
11473;SDS011;5793;52.238;13.438;2023-02-01T09:00:49;11.87;;;4.80;;
11473;SDS011;5793;52.238;13.438;2023-02-01T09:03:17;10.80;;;4.63;;
11473;SDS011;5793;52.238;13.438;2023-02-01T09:05:46;14.00;;;5.83;;
11473;SDS011;5793;52.238;13.438;2023-02-01T09:08:15;13.47;;;5.40;;
11473;SDS011;5793;52.238;13.438;2023-02-01T09:10:46;13.43;;;5.00;;
11473;SDS011;5793;52.238;13.438;2023-02-01T09:13:14;13.30;;;5.30;;
11473;SDS011;5793;52.238;13.438;2023-02-01T09:15:41;14.57;;;5.57;;
11473;SDS011;5793;52.238;13.438;2023-02-01T09:18:10;10.57;;;5.30;;
11473;SDS011;5793;52.238;13.438;2023-02-01T09:20:37;10.70;;;5.07;;
11473;SDS011;5793;52.238;13.438;2023-02-01T09:23:05;10.10;;;4.97;;
11473;SDS011;5793;52.238;13.438;2023-02-01T09:25:33;11.10;;;5.30;;
11473;SDS011;5793;52.238;13.438;2023-02-01T09:28:02;17.47;;;7.93;;
11473;SDS011;5793;52.238;13.438;2023-02-01T09:30:32;9.07;;;4.40;;
11473;SDS011;5793;52.238;13.438;2023-02-01T09:33:00;10.27;;;4.03;;
11473;SDS011;5793;52.238;13.438;2023-02-01T09:35:28;8.00;;;3.80;;
11473;SDS011;5793;52.238;13.438;2023-02-01T09:37:55;8.17;;;3.50;;
11473;SDS011;5793;52.238;13.438;2023-02-01T09:40:23;9.30;;;3.70;;
11473;SDS011;5793;52.238;13.438;2023-02-01T09:42:59;8.93;;;3.53;;
11473;SDS011;5793;52.238;13.438;2023-02-01T09:45:39;10.10;;;3.83;;
11473;SDS011;5793;52.238;13.438;2023-02-01T09:48:16;7.43;;;4.00;;
11473;SDS011;5793;52.238;13.438;2023-02-01T09:50:48;9.70;;;4.23;;
11473;SDS011;5793;52.238;13.438;2023-02-01T09:53:21;9.33;;;3.63;;
11473;SDS011;5793;52.238;13.438;2023-02-01T09:55:55;8.47;;;3.70;;
11473;SDS011;5793;52.238;13.438;2023-02-01T09:58:29;10.07;;;3.00;;
11473;SDS011;5793;52.238;13.438;2023-02-01T10:01:01;5.30;;;2.70;;
11473;SDS011;5793;52.238;13.438;2023-02-01T10:03:31;6.83;;;2.60;;
11473;SDS011;5793;52.238;13.438;2023-02-01T10:06:05;8.60;;;3.83;;
11473;SDS011;5793;52.238;13.438;2023-02-01T10:08:53;6.77;;;4.30;;
11473;SDS011;5793;52.238;13.438;2023-02-01T10:11:47;6.60;;;3.20;;
11473;SDS011;5793;52.238;13.438;2023-02-01T10:14:49;4.67;;;2.13;;
11473;SDS011;5793;52.238;13.438;2023-02-01T10:17:29;6.60;;;3.77;;
11473;SDS011;5793;52.238;13.438;2023-02-01T10:20:12;7.60;;;2.70;;
11473;SDS011;5793;52.238;13.438;2023-02-01T10:22:51;4.53;;;2.20;;
11473;SDS011;5793;52.238;13.438;2023-02-01T10:25:50;4.53;;;2.07;;
11473;SDS011;5793;52.238;13.438;2023-02-01T10:28:22;3.50;;;1.80;;
11473;SDS011;5793;52.238;13.438;2023-02-01T10:30:54;4.67;;;2.37;;
11473;SDS011;5793;52.238;13.438;2023-02-01T10:33:26;3.67;;;1.80;;
11473;SDS011;5793;52.238;13.438;2023-02-01T10:36:00;8.73;;;5.43;;
11473;SDS011;5793;52.238;13.438;2023-02-01T10:38:32;6.33;;;1.93;;
11473;SDS011;5793;52.238;13.438;2023-02-01T10:41:00;4.00;;;1.60;;
11473;SDS011;5793;52.238;13.438;2023-02-01T10:43:31;4.23;;;1.50;;
11473;SDS011;5793;52.238;13.438;2023-02-01T10:46:01;4.33;;;1.60;;
11473;SDS011;5793;52.238;13.438;2023-02-01T10:48:29;5.80;;;2.10;;
11473;SDS011;5793;52.238;13.438;2023-02-01T10:50:59;4.53;;;2.13;;
11473;SDS011;5793;52.238;13.438;2023-02-01T10:53:31;8.37;;;2.00;;
11473;SDS011;5793;52.238;13.438;2023-02-01T10:56:05;6.40;;;1.90;;
11473;SDS011;5793;52.238;13.438;2023-02-01T10:58:35;4.87;;;1.70;;
11473;SDS011;5793;52.238;13.438;2023-02-01T11:01:15;5.73;;;2.13;;
11473;SDS011;5793;52.238;13.438;2023-02-01T11:03:44;10.63;;;2.73;;
11473;SDS011;5793;52.238;13.438;2023-02-01T11:06:22;7.33;;;2.53;;
11473;SDS011;5793;52.238;13.438;2023-02-01T11:08:54;5.17;;;2.10;;
11473;SDS011;5793;52.238;13.438;2023-02-01T11:11:23;6.43;;;2.43;;
11473;SDS011;5793;52.238;13.438;2023-02-01T11:13:53;5.60;;;2.00;;
11473;SDS011;5793;52.238;13.438;2023-02-01T11:16:28;12.83;;;2.63;;
11473;SDS011;5793;52.238;13.438;2023-02-01T11:18:57;5.47;;;2.50;;
11473;SDS011;5793;52.238;13.438;2023-02-01T11:21:26;5.77;;;2.20;;
11473;SDS011;5793;52.238;13.438;2023-02-01T11:23:54;11.07;;;2.60;;
11473;SDS011;5793;52.238;13.438;2023-02-01T11:26:27;7.63;;;2.77;;
11473;SDS011;5793;52.238;13.438;2023-02-01T11:28:56;8.83;;;2.40;;
11473;SDS011;5793;52.238;13.438;2023-02-01T11:31:29;8.47;;;2.30;;
11473;SDS011;5793;52.238;13.438;2023-02-01T11:34:00;9.17;;;3.73;;
11473;SDS011;5793;52.238;13.438;2023-02-01T11:36:35;8.37;;;2.70;;
11473;SDS011;5793;52.238;13.438;2023-02-01T11:39:08;9.07;;;3.73;;
11473;SDS011;5793;52.238;13.438;2023-02-01T11:41:54;6.10;;;2.77;;
11473;SDS011;5793;52.238;13.438;2023-02-01T11:44:26;7.73;;;2.20;;
11473;SDS011;5793;52.238;13.438;2023-02-01T11:49:50;8.83;;;3.20;;
11473;SDS011;5793;52.238;13.438;2023-02-01T11:52:31;8.33;;;2.60;;
11473;SDS011;5793;52.238;13.438;2023-02-01T11:55:14;9.87;;;2.97;;
11473;SDS011;5793;52.238;13.438;2023-02-01T11:57:54;7.27;;;2.33;;
11473;SDS011;5793;52.238;13.438;2023-02-01T12:00:44;8.73;;;2.40;;
11473;SDS011;5793;52.238;13.438;2023-02-01T12:06:33;9.83;;;2.63;;
11473;SDS011;5793;52.238;13.438;2023-02-01T12:09:13;8.70;;;2.30;;
11473;SDS011;5793;52.238;13.438;2023-02-01T12:11:53;5.80;;;2.50;;
11473;SDS011;5793;52.238;13.438;2023-02-01T12:14:32;11.13;;;2.50;;
11473;SDS011;5793;52.238;13.438;2023-02-01T12:17:26;13.03;;;2.10;;
11473;SDS011;5793;52.238;13.438;2023-02-01T12:20:13;14.70;;;2.77;;
11473;SDS011;5793;52.238;13.438;2023-02-01T12:23:01;5.73;;;2.00;;
11473;SDS011;5793;52.238;13.438;2023-02-01T12:25:42;7.77;;;2.07;;
11473;SDS011;5793;52.238;13.438;2023-02-01T12:28:30;5.73;;;2.67;;
11473;SDS011;5793;52.238;13.438;2023-02-01T12:31:20;5.87;;;2.23;;
11473;SDS011;5793;52.238;13.438;2023-02-01T12:34:17;7.30;;;2.13;;
11473;SDS011;5793;52.238;13.438;2023-02-01T12:37:03;6.73;;;2.10;;
11473;SDS011;5793;52.238;13.438;2023-02-01T12:39:42;9.27;;;2.77;;
11473;SDS011;5793;52.238;13.438;2023-02-01T12:42:16;10.40;;;2.60;;
11473;SDS011;5793;52.238;13.438;2023-02-01T12:44:49;8.27;;;2.53;;
11473;SDS011;5793;52.238;13.438;2023-02-01T12:47:24;8.33;;;2.70;;
11473;SDS011;5793;52.238;13.438;2023-02-01T12:50:00;8.83;;;2.03;;
11473;SDS011;5793;52.238;13.438;2023-02-01T12:52:33;7.17;;;2.00;;
11473;SDS011;5793;52.238;13.438;2023-02-01T12:55:07;8.50;;;2.37;;
11473;SDS011;5793;52.238;13.438;2023-02-01T12:57:43;6.37;;;2.10;;
11473;SDS011;5793;52.238;13.438;2023-02-01T13:00:16;10.47;;;2.50;;
11473;SDS011;5793;52.238;13.438;2023-02-01T13:02:52;7.77;;;2.43;;
11473;SDS011;5793;52.238;13.438;2023-02-01T13:05:25;5.77;;;2.30;;
11473;SDS011;5793;52.238;13.438;2023-02-01T13:07:59;8.57;;;1.90;;
11473;SDS011;5793;52.238;13.438;2023-02-01T13:10:32;5.80;;;2.10;;
11473;SDS011;5793;52.238;13.438;2023-02-01T13:13:04;8.03;;;2.43;;
11473;SDS011;5793;52.238;13.438;2023-02-01T13:15:39;8.47;;;2.20;;
11473;SDS011;5793;52.238;13.438;2023-02-01T13:18:11;8.90;;;2.50;;
11473;SDS011;5793;52.238;13.438;2023-02-01T13:20:44;11.00;;;2.63;;
11473;SDS011;5793;52.238;13.438;2023-02-01T13:23:19;9.03;;;2.47;;
11473;SDS011;5793;52.238;13.438;2023-02-01T13:25:53;14.23;;;2.80;;
11473;SDS011;5793;52.238;13.438;2023-02-01T13:28:24;12.10;;;2.23;;
11473;SDS011;5793;52.238;13.438;2023-02-01T13:34:04;7.23;;;2.27;;
11473;SDS011;5793;52.238;13.438;2023-02-01T13:37:10;9.70;;;3.20;;
11473;SDS011;5793;52.238;13.438;2023-02-01T13:39:48;8.40;;;2.67;;
11473;SDS011;5793;52.238;13.438;2023-02-01T13:42:28;11.80;;;2.50;;
11473;SDS011;5793;52.238;13.438;2023-02-01T13:44:59;8.07;;;2.73;;
11473;SDS011;5793;52.238;13.438;2023-02-01T13:47:31;10.60;;;2.70;;
11473;SDS011;5793;52.238;13.438;2023-02-01T13:50:01;11.60;;;2.63;;
11473;SDS011;5793;52.238;13.438;2023-02-01T13:52:37;7.90;;;2.70;;
11473;SDS011;5793;52.238;13.438;2023-02-01T13:55:15;11.27;;;3.00;;
11473;SDS011;5793;52.238;13.438;2023-02-01T13:57:58;8.63;;;2.57;;
11473;SDS011;5793;52.238;13.438;2023-02-01T14:00:29;9.17;;;2.93;;
11473;SDS011;5793;52.238;13.438;2023-02-01T14:03:11;10.23;;;3.17;;
11473;SDS011;5793;52.238;13.438;2023-02-01T14:11:43;16.00;;;3.50;;
11473;SDS011;5793;52.238;13.438;2023-02-01T14:23:21;5.93;;;2.50;;
11473;SDS011;5793;52.238;13.438;2023-02-01T14:26:07;8.37;;;3.20;;
11473;SDS011;5793;52.238;13.438;2023-02-01T14:28:50;11.97;;;3.27;;
11473;SDS011;5793;52.238;13.438;2023-02-01T14:31:37;12.40;;;3.87;;
11473;SDS011;5793;52.238;13.438;2023-02-01T14:34:29;11.03;;;3.37;;
11473;SDS011;5793;52.238;13.438;2023-02-01T14:37:01;16.63;;;3.07;;
11473;SDS011;5793;52.238;13.438;2023-02-01T14:39:32;16.23;;;3.50;;
11473;SDS011;5793;52.238;13.438;2023-02-01T14:42:05;15.80;;;3.77;;
11473;SDS011;5793;52.238;13.438;2023-02-01T14:44:48;11.23;;;3.00;;
11473;SDS011;5793;52.238;13.438;2023-02-01T14:47:27;9.83;;;3.77;;
11473;SDS011;5793;52.238;13.438;2023-02-01T14:49:59;10.17;;;3.67;;
11473;SDS011;5793;52.238;13.438;2023-02-01T14:52:37;12.93;;;4.00;;
11473;SDS011;5793;52.238;13.438;2023-02-01T14:55:11;14.63;;;3.73;;
11473;SDS011;5793;52.238;13.438;2023-02-01T14:57:42;11.40;;;2.90;;
11473;SDS011;5793;52.238;13.438;2023-02-01T15:00:18;9.93;;;3.47;;
11473;SDS011;5793;52.238;13.438;2023-02-01T15:02:51;12.17;;;3.73;;
11473;SDS011;5793;52.238;13.438;2023-02-01T15:05:23;11.63;;;3.73;;
11473;SDS011;5793;52.238;13.438;2023-02-01T15:08:03;8.67;;;4.57;;
11473;SDS011;5793;52.238;13.438;2023-02-01T15:10:39;6.60;;;1.93;;
11473;SDS011;5793;52.238;13.438;2023-02-01T15:15:59;6.90;;;2.53;;
11473;SDS011;5793;52.238;13.438;2023-02-01T15:18:33;8.87;;;2.20;;
11473;SDS011;5793;52.238;13.438;2023-02-01T15:21:01;9.47;;;3.30;;
11473;SDS011;5793;52.238;13.438;2023-02-01T15:23:55;8.30;;;2.97;;
11473;SDS011;5793;52.238;13.438;2023-02-01T15:26:37;9.33;;;4.20;;
11473;SDS011;5793;52.238;13.438;2023-02-01T15:29:08;21.77;;;9.47;;
11473;SDS011;5793;52.238;13.438;2023-02-01T15:31:39;10.10;;;4.23;;
11473;SDS011;5793;52.238;13.438;2023-02-01T15:34:10;10.20;;;3.77;;
11473;SDS011;5793;52.238;13.438;2023-02-01T15:36:38;7.37;;;2.90;;